Time;durP1;ratioP1;P1;durP2;ratioP2;P2;SDS_P1;SDS_P2;PMS_P1;PMS_P2;Temp;Humidity;BMP_temperature;BMP_pressure;BME280_temperature;BME280_humidity;BME280_pressure;Samples;Min_cycle;Max_cycle;Signal;HPM_P1;HPM_P2
2020/12/18 00:01:36;;;;;;;0.30;0.30;;;5.00;99.90;;;;;;5044702;28;20197;-67
2020/12/18 00:04:02;;;;;;;0.30;0.30;;;5.00;99.90;;;;;;5045240;28;20181;-67
2020/12/18 00:06:35;;;;;;;0.30;0.30;;;5.00;99.90;;;;;;5033799;28;20174;-67
2020/12/18 00:09:06;;;;;;;0.30;0.30;;;4.90;99.90;;;;;;5034839;28;20506;-67
2020/12/18 00:11:31;;;;;;;0.30;0.20;;;4.90;99.90;;;;;;5032654;28;20206;-67
2020/12/18 00:13:57;;;;;;;0.30;0.30;;;4.80;99.90;;;;;;5032834;28;20166;-67
2020/12/18 00:16:26;;;;;;;0.30;0.30;;;4.80;99.90;;;;;;5033313;28;20174;-67
2020/12/18 00:18:51;;;;;;;0.60;0.60;;;4.80;99.90;;;;;;5031615;28;20479;-67
2020/12/18 00:21:18;;;;;;;2.00;1.77;;;4.80;99.90;;;;;;5032884;28;20198;-67
2020/12/18 00:23:44;;;;;;;0.30;0.30;;;4.80;99.90;;;;;;5041378;28;20178;-67
2020/12/18 00:26:10;;;;;;;0.40;0.40;;;4.80;99.90;;;;;;5033212;28;20180;-67
2020/12/18 00:28:35;;;;;;;0.30;0.30;;;4.70;99.90;;;;;;5032936;28;20181;-66
2020/12/18 00:31:01;;;;;;;0.30;0.30;;;4.60;99.90;;;;;;5032580;28;20170;-66
2020/12/18 00:33:27;;;;;;;0.40;0.40;;;4.60;99.90;;;;;;5031884;28;20668;-67
2020/12/18 00:35:52;;;;;;;0.30;0.30;;;4.60;99.90;;;;;;5032678;28;20186;-67
2020/12/18 00:38:18;;;;;;;0.47;0.47;;;4.50;99.90;;;;;;5042954;28;20193;-67
2020/12/18 00:40:45;;;;;;;0.40;0.40;;;4.60;99.90;;;;;;5034321;28;20256;-67
2020/12/18 00:43:11;;;;;;;0.50;0.50;;;4.60;99.90;;;;;;5032898;28;20261;-67
2020/12/18 00:45:36;;;;;;;0.30;0.30;;;4.60;99.90;;;;;;5032590;28;20667;-67
2020/12/18 00:48:02;;;;;;;0.40;0.40;;;4.60;99.90;;;;;;5032914;28;20474;-66
2020/12/18 00:50:28;;;;;;;0.40;0.40;;;4.50;99.90;;;;;;5032140;28;20633;-67
2020/12/18 00:52:53;;;;;;;1.37;1.03;;;4.50;99.90;;;;;;5041519;28;20463;-66
2020/12/18 00:55:19;;;;;;;0.30;0.30;;;4.50;99.90;;;;;;5039622;28;20189;-67
2020/12/18 00:57:45;;;;;;;0.98;0.95;;;4.50;99.90;;;;;;5032896;28;20202;-66
2020/12/18 01:00:12;;;;;;;0.30;0.30;;;4.50;99.90;;;;;;5032009;28;20226;-67
2020/12/18 01:02:38;;;;;;;0.30;0.30;;;4.50;99.90;;;;;;5012857;28;20202;-66
2020/12/18 01:05:04;;;;;;;0.30;0.20;;;4.40;99.90;;;;;;5022369;28;20227;-67
2020/12/18 01:07:29;;;;;;;0.40;0.40;;;4.30;99.90;;;;;;5033306;28;20648;-66
2020/12/18 01:09:55;;;;;;;0.40;0.40;;;4.30;99.90;;;;;;5036132;28;20185;-67
2020/12/18 01:12:21;;;;;;;0.30;0.30;;;4.30;99.90;;;;;;5035787;28;20194;-67
2020/12/18 01:14:46;;;;;;;0.30;0.30;;;4.30;99.90;;;;;;5036042;28;20178;-68
2020/12/18 01:17:13;;;;;;;0.30;0.30;;;4.20;99.90;;;;;;5039621;28;20177;-67
2020/12/18 01:19:39;;;;;;;0.30;0.30;;;4.20;99.90;;;;;;5050923;28;20201;-67
2020/12/18 01:22:05;;;;;;;0.40;0.40;;;4.10;99.90;;;;;;5035979;28;20194;-66
2020/12/18 01:24:30;;;;;;;0.40;0.40;;;4.10;99.90;;;;;;5035934;28;20236;-66
2020/12/18 01:26:56;;;;;;;0.30;0.30;;;4.10;99.90;;;;;;5034954;28;20501;-68
2020/12/18 01:29:22;;;;;;;0.30;0.30;;;4.10;99.90;;;;;;5035629;28;20182;-67
2020/12/18 01:31:48;;;;;;;0.70;0.70;;;4.10;99.90;;;;;;5035449;28;20190;-67
2020/12/18 01:34:13;;;;;;;0.50;0.50;;;4.10;99.90;;;;;;5035742;28;20201;-66
2020/12/18 01:36:39;;;;;;;0.30;0.30;;;4.10;99.90;;;;;;5035774;28;20239;-66
2020/12/18 01:39:05;;;;;;;0.40;0.40;;;4.10;99.90;;;;;;5035076;28;20205;-67
2020/12/18 01:41:32;;;;;;;0.60;0.60;;;4.00;99.90;;;;;;5034154;28;20189;-67
2020/12/18 01:43:57;;;;;;;0.38;0.38;;;4.10;99.90;;;;;;5035496;28;20174;-67
2020/12/18 01:46:27;;;;;;;0.90;0.90;;;4.10;99.90;;;;;;5035805;28;20177;-66
2020/12/18 01:48:53;;;;;;;0.32;0.32;;;4.10;99.90;;;;;;5044306;28;20951;-66
2020/12/18 01:51:19;;;;;;;0.60;0.60;;;4.10;99.90;;;;;;5035322;28;20550;-66
2020/12/18 01:53:46;;;;;;;1.95;1.85;;;4.00;99.90;;;;;;5035084;28;20194;-66
2020/12/18 01:56:13;;;;;;;0.30;0.30;;;4.00;99.90;;;;;;5046192;28;20177;-67
2020/12/18 01:58:40;;;;;;;0.40;0.40;;;4.00;99.90;;;;;;5047907;28;20204;-67
2020/12/18 02:01:08;;;;;;;0.30;0.30;;;4.00;99.90;;;;;;5035035;28;20170;-67
2020/12/18 02:03:34;;;;;;;0.73;0.73;;;4.00;99.90;;;;;;5035289;28;20498;-67
2020/12/18 02:06:17;;;;;;;0.30;0.30;;;4.00;99.90;;;;;;5035318;28;20569;-67
2020/12/18 02:08:44;;;;;;;0.68;0.68;;;4.00;99.90;;;;;;5035049;28;20192;-67
2020/12/18 02:11:12;;;;;;;0.30;0.30;;;4.00;99.90;;;;;;5034779;28;20216;-67
2020/12/18 02:13:38;;;;;;;0.30;0.30;;;4.00;99.90;;;;;;5034952;28;20209;-67
2020/12/18 02:16:04;;;;;;;0.40;0.40;;;4.00;99.90;;;;;;5035220;28;20200;-67
2020/12/18 02:18:30;;;;;;;0.43;0.43;;;3.90;99.90;;;;;;5034666;28;20456;-67
2020/12/18 02:20:56;;;;;;;0.43;0.43;;;4.00;99.90;;;;;;5035644;28;20467;-67
2020/12/18 02:23:21;;;;;;;0.30;0.30;;;3.90;99.90;;;;;;5034415;28;20633;-67
2020/12/18 02:26:05;;;;;;;0.53;0.53;;;3.80;99.90;;;;;;5035003;28;20185;-67
2020/12/18 02:28:31;;;;;;;0.55;0.55;;;3.80;99.90;;;;;;5034850;28;20575;-68
2020/12/18 02:30:58;;;;;;;0.95;0.95;;;3.80;99.90;;;;;;5040465;28;20257;-67
2020/12/18 02:33:23;;;;;;;0.40;0.40;;;3.70;99.90;;;;;;5053022;28;20266;-67
2020/12/18 02:35:49;;;;;;;0.37;0.37;;;3.70;99.90;;;;;;5034959;28;20174;-66
2020/12/18 02:38:15;;;;;;;0.70;0.70;;;3.60;99.90;;;;;;5034730;28;20170;-66
2020/12/18 02:40:40;;;;;;;0.40;0.40;;;3.50;99.90;;;;;;5033853;28;20688;-67
2020/12/18 02:43:06;;;;;;;0.60;0.60;;;3.50;99.90;;;;;;5036662;28;20186;-67
2020/12/18 02:45:32;;;;;;;0.90;0.90;;;3.40;99.90;;;;;;5056243;28;20532;-66
2020/12/18 02:47:57;;;;;;;0.30;0.30;;;3.40;99.90;;;;;;5040090;28;20213;-66
2020/12/18 02:50:23;;;;;;;0.30;0.30;;;3.30;99.90;;;;;;5034131;28;20174;-67
2020/12/18 02:52:49;;;;;;;0.30;0.30;;;3.30;99.90;;;;;;5034087;28;20202;-67
2020/12/18 02:55:15;;;;;;;0.40;0.40;;;3.30;99.90;;;;;;5034488;28;20265;-66
2020/12/18 02:57:40;;;;;;;0.30;0.30;;;3.20;99.90;;;;;;5034139;28;20574;-66
2020/12/18 03:00:06;;;;;;;2.40;1.03;;;3.10;99.90;;;;;;5034150;28;20201;-68
2020/12/18 03:02:32;;;;;;;0.75;0.75;;;3.10;99.90;;;;;;5033894;28;20584;-67
2020/12/18 03:04:57;;;;;;;0.40;0.40;;;3.10;99.90;;;;;;5053982;28;20165;-67
2020/12/18 03:07:23;;;;;;;0.50;0.50;;;3.10;99.90;;;;;;5046423;28;20166;-67
2020/12/18 03:09:49;;;;;;;0.40;0.40;;;3.10;99.90;;;;;;5033897;28;20181;-68
2020/12/18 03:12:14;;;;;;;0.40;0.40;;;3.20;99.90;;;;;;5034150;28;20221;-67
2020/12/18 03:14:40;;;;;;;0.30;0.30;;;3.30;99.90;;;;;;5034233;28;20170;-67
2020/12/18 03:17:05;;;;;;;1.63;1.60;;;3.30;99.90;;;;;;5033763;28;20197;-68
2020/12/18 03:19:31;;;;;;;0.30;0.30;;;3.40;99.90;;;;;;5033976;28;20648;-68
2020/12/18 03:21:57;;;;;;;0.43;0.43;;;3.40;99.90;;;;;;5032963;28;20661;-68
2020/12/18 03:24:23;;;;;;;0.40;0.40;;;3.40;99.90;;;;;;5050065;28;20186;-67
2020/12/18 03:26:48;;;;;;;0.30;0.30;;;3.30;99.90;;;;;;5043761;28;20174;-68
2020/12/18 03:29:14;;;;;;;0.40;0.40;;;3.30;99.90;;;;;;5033845;28;20628;-67
2020/12/18 03:31:39;;;;;;;0.60;0.60;;;3.20;99.90;;;;;;5034110;28;20202;-68
2020/12/18 03:34:06;;;;;;;0.30;0.30;;;3.10;99.90;;;;;;5033122;28;20707;-69
2020/12/18 03:36:36;;;;;;;0.77;0.77;;;3.10;99.90;;;;;;5033322;28;20699;-67
2020/12/18 03:39:03;;;;;;;0.68;0.68;;;3.10;99.90;;;;;;5033292;28;20238;-67
2020/12/18 03:41:29;;;;;;;0.32;0.32;;;3.10;99.90;;;;;;5046368;28;20189;-68
2020/12/18 03:43:54;;;;;;;0.33;0.33;;;3.10;99.90;;;;;;5033569;28;20166;-67
2020/12/18 03:46:20;;;;;;;0.30;0.30;;;3.10;99.90;;;;;;5031888;28;20550;-67
2020/12/18 03:48:46;;;;;;;0.40;0.40;;;3.20;99.90;;;;;;5033781;28;20253;-68
2020/12/18 03:51:11;;;;;;;0.50;0.50;;;3.30;99.90;;;;;;5032859;28;20640;-70
2020/12/18 03:53:37;;;;;;;0.30;0.30;;;3.30;99.90;;;;;;5033464;28;20193;-67
2020/12/18 03:56:02;;;;;;;0.40;0.40;;;3.50;99.90;;;;;;5033037;28;20593;-67
2020/12/18 03:58:28;;;;;;;2.00;1.90;;;3.40;99.90;;;;;;5033291;28;20684;-67
2020/12/18 04:00:53;;;;;;;0.30;0.30;;;3.50;99.90;;;;;;5032937;28;20173;-67
2020/12/18 04:03:19;;;;;;;0.60;0.60;;;3.50;99.90;;;;;;5033293;28;20182;-67
2020/12/18 04:05:45;;;;;;;6.17;1.73;;;3.50;99.90;;;;;;5033183;28;20549;-67
2020/12/18 04:08:10;;;;;;;0.30;0.30;;;3.60;99.90;;;;;;5033063;28;20653;-66
2020/12/18 04:10:36;;;;;;;0.30;0.30;;;3.70;99.90;;;;;;5032864;28;20173;-66
2020/12/18 04:13:02;;;;;;;0.30;0.30;;;3.70;99.90;;;;;;5032830;28;20593;-67
2020/12/18 04:15:27;;;;;;;1.80;1.70;;;3.80;99.90;;;;;;5033089;28;20172;-66
2020/12/18 04:17:53;;;;;;;0.60;0.60;;;3.80;99.90;;;;;;5044799;28;20204;-68
2020/12/18 04:20:18;;;;;;;0.80;0.80;;;3.90;99.90;;;;;;5052572;28;20200;-67
2020/12/18 04:22:44;;;;;;;0.30;0.30;;;4.00;99.90;;;;;;5038560;28;20197;-67
2020/12/18 04:25:09;;;;;;;0.80;0.80;;;4.00;99.90;;;;;;5033119;28;20565;-68
2020/12/18 04:27:35;;;;;;;0.30;0.30;;;4.00;99.90;;;;;;5032772;28;20177;-67
2020/12/18 04:30:01;;;;;;;0.40;0.40;;;4.10;99.90;;;;;;5032813;28;20174;-68
2020/12/18 04:32:27;;;;;;;0.40;0.40;;;4.00;99.90;;;;;;5032469;28;20284;-68
2020/12/18 04:34:53;;;;;;;0.40;0.40;;;4.00;99.90;;;;;;5033275;28;20174;-68
2020/12/18 04:37:18;;;;;;;2.47;2.38;;;4.00;99.90;;;;;;5032691;28;20641;-69
2020/12/18 04:39:45;;;;;;;0.30;0.30;;;4.00;99.90;;;;;;5032792;28;20251;-67
2020/12/18 04:42:10;;;;;;;0.30;0.30;;;4.00;99.90;;;;;;5032971;28;20197;-67
2020/12/18 04:44:37;;;;;;;0.30;0.30;;;4.00;99.90;;;;;;5052228;28;20248;-67
2020/12/18 04:47:03;;;;;;;0.40;0.40;;;4.00;99.90;;;;;;5050780;28;20170;-67
2020/12/18 04:49:30;;;;;;;0.30;0.30;;;4.00;99.90;;;;;;5036679;28;20170;-67
2020/12/18 04:51:59;;;;;;;0.30;0.20;;;4.00;99.90;;;;;;5035966;28;20197;-67
2020/12/18 04:54:30;;;;;;;0.40;0.40;;;4.00;99.90;;;;;;5036838;28;20580;-67
2020/12/18 04:56:58;;;;;;;0.30;0.30;;;4.00;99.90;;;;;;5038076;28;20174;-67
2020/12/18 04:59:25;;;;;;;1.10;1.10;;;4.00;99.90;;;;;;5055200;28;20205;-66
2020/12/18 05:01:55;;;;;;;0.30;0.30;;;3.90;99.90;;;;;;5053553;28;20190;-66
2020/12/18 05:04:21;;;;;;;0.30;0.30;;;3.90;99.90;;;;;;5036526;28;20168;-66
2020/12/18 05:06:47;;;;;;;0.40;0.40;;;3.90;99.90;;;;;;5038240;28;20173;-67
2020/12/18 05:09:13;;;;;;;0.30;0.30;;;3.80;99.90;;;;;;5036400;28;20181;-66
2020/12/18 05:11:38;;;;;;;1.17;1.07;;;3.80;99.90;;;;;;5036049;28;20190;-67
2020/12/18 05:14:04;;;;;;;0.70;0.70;;;3.90;99.90;;;;;;5036140;28;20535;-66
2020/12/18 05:16:30;;;;;;;0.60;0.60;;;3.80;99.90;;;;;;5046875;28;20687;-67
2020/12/18 05:19:03;;;;;;;0.40;0.40;;;3.80;99.90;;;;;;5035903;28;20205;-67
2020/12/18 05:21:29;;;;;;;0.40;0.40;;;3.80;99.90;;;;;;5035453;28;20189;-67
2020/12/18 05:23:55;;;;;;;0.30;0.30;;;3.70;99.90;;;;;;5036329;28;20167;-67
2020/12/18 05:26:29;;;;;;;0.30;0.30;;;3.60;99.90;;;;;;5035660;28;20641;-67
2020/12/18 05:29:04;;;;;;;0.30;0.30;;;3.60;99.90;;;;;;5034871;28;20182;-67
2020/12/18 05:31:31;;;;;;;0.30;0.30;;;3.50;99.90;;;;;;5035502;28;20564;-67
2020/12/18 05:34:00;;;;;;;0.47;0.47;;;3.60;99.90;;;;;;5036168;28;20174;-67
2020/12/18 05:36:26;;;;;;;0.40;0.40;;;3.50;99.90;;;;;;5035554;28;20710;-67
2020/12/18 05:38:52;;;;;;;0.30;0.30;;;3.50;99.90;;;;;;5035860;28;20572;-66
2020/12/18 05:41:24;;;;;;;0.30;0.30;;;3.50;99.90;;;;;;5035034;28;20190;-66
2020/12/18 05:43:51;;;;;;;0.40;0.40;;;3.40;99.90;;;;;;5035812;28;20178;-67
2020/12/18 05:46:28;;;;;;;0.40;0.40;;;3.50;99.90;;;;;;5035503;28;20174;-67
2020/12/18 05:49:05;;;;;;;0.30;0.30;;;3.50;99.90;;;;;;5035731;28;20181;-67
2020/12/18 05:51:41;;;;;;;0.30;0.30;;;3.50;99.90;;;;;;5043500;28;20189;-67
2020/12/18 05:54:15;;;;;;;0.40;0.40;;;3.50;99.90;;;;;;5035569;28;20203;-67
2020/12/18 05:56:43;;;;;;;0.68;0.68;;;3.50;99.90;;;;;;5034625;28;20287;-67
2020/12/18 05:59:19;;;;;;;0.35;0.35;;;3.50;99.90;;;;;;5035354;28;20198;-66
2020/12/18 06:01:50;;;;;;;0.40;0.40;;;3.50;99.90;;;;;;5034682;28;20654;-67
2020/12/18 06:04:16;;;;;;;0.45;0.45;;;3.50;99.90;;;;;;5035346;28;20629;-67
2020/12/18 06:06:44;;;;;;;0.40;0.40;;;3.50;99.90;;;;;;5034784;28;20305;-67
2020/12/18 06:09:10;;;;;;;0.30;0.30;;;3.50;99.90;;;;;;5035093;28;20529;-67
2020/12/18 06:11:37;;;;;;;1.33;1.23;;;3.50;99.90;;;;;;5034415;28;20208;-67
2020/12/18 06:14:04;;;;;;;0.40;0.40;;;3.40;99.90;;;;;;5040186;28;20188;-67
2020/12/18 06:16:30;;;;;;;0.63;0.63;;;3.40;99.90;;;;;;5047977;28;20189;-67
2020/12/18 06:19:04;;;;;;;0.40;0.40;;;3.50;99.90;;;;;;5035107;28;20568;-67
2020/12/18 06:21:30;;;;;;;0.30;0.30;;;3.50;99.90;;;;;;5034258;28;20244;-67
2020/12/18 06:23:56;;;;;;;0.52;0.52;;;3.50;99.90;;;;;;5033661;28;20167;-67
2020/12/18 06:26:23;;;;;;;0.30;0.30;;;3.60;99.90;;;;;;5034308;28;20580;-67
2020/12/18 06:28:49;;;;;;;0.50;0.50;;;3.60;99.90;;;;;;5034700;28;20467;-67
2020/12/18 06:31:22;;;;;;;1.67;0.98;;;3.60;99.90;;;;;;5042629;28;20534;-66
2020/12/18 06:33:51;;;;;;;1.80;1.70;;;3.70;99.90;;;;;;5034396;28;20228;-67
2020/12/18 06:36:18;;;;;;;0.85;0.85;;;3.70;99.90;;;;;;5034298;28;20178;-67
2020/12/18 06:38:44;;;;;;;0.30;0.30;;;3.80;99.90;;;;;;5034565;28;20300;-67
2020/12/18 06:41:24;;;;;;;0.40;0.40;;;3.90;99.90;;;;;;5033843;28;20185;-67
2020/12/18 06:43:50;;;;;;;0.40;0.40;;;4.00;99.90;;;;;;5034755;28;20249;-69
2020/12/18 06:46:19;;;;;;;0.40;0.40;;;4.00;99.90;;;;;;5034129;28;20197;-67
2020/12/18 06:48:50;;;;;;;1.42;1.35;;;4.00;99.90;;;;;;5034433;28;20192;-67
2020/12/18 06:51:29;;;;;;;0.30;0.30;;;4.00;99.90;;;;;;5033346;28;20233;-68
2020/12/18 06:54:10;;;;;;;0.30;0.30;;;4.10;99.90;;;;;;5034494;28;20217;-69
2020/12/18 06:56:36;;;;;;;0.40;0.40;;;4.20;99.90;;;;;;5034178;28;20173;-67
2020/12/18 06:59:18;;;;;;;1.23;1.23;;;4.10;99.90;;;;;;5034369;28;20197;-69
2020/12/18 07:01:44;;;;;;;0.73;0.73;;;4.10;99.90;;;;;;5033847;28;20186;-66
2020/12/18 07:04:20;;;;;;;1.80;1.70;;;4.00;99.90;;;;;;5034283;28;20189;-68
2020/12/18 07:06:46;;;;;;;0.30;0.30;;;4.00;99.90;;;;;;5032360;28;20173;-67
2020/12/18 07:09:11;;;;;;;0.60;0.60;;;4.00;99.90;;;;;;5032443;28;20235;-67
2020/12/18 07:11:37;;;;;;;0.40;0.40;;;3.90;99.90;;;;;;5033391;28;20278;-67
2020/12/18 07:14:03;;;;;;;0.30;0.30;;;3.80;99.90;;;;;;5034107;28;20432;-68
2020/12/18 07:16:29;;;;;;;0.30;0.30;;;3.80;99.90;;;;;;5033685;28;20549;-67
2020/12/18 07:19:03;;;;;;;0.30;0.30;;;3.70;99.90;;;;;;5033834;28;20448;-67
2020/12/18 07:21:28;;;;;;;0.68;0.68;;;3.70;99.90;;;;;;5032984;28;20190;-67
2020/12/18 07:23:54;;;;;;;0.30;0.30;;;3.70;99.90;;;;;;5033725;28;20173;-67
2020/12/18 07:26:21;;;;;;;0.70;0.70;;;3.70;99.90;;;;;;5033598;28;20193;-66
2020/12/18 07:28:47;;;;;;;0.50;0.50;;;3.70;99.90;;;;;;5033209;28;20687;-71
2020/12/18 07:31:21;;;;;;;0.30;0.30;;;3.70;99.90;;;;;;5032941;28;20181;-69
2020/12/18 07:33:52;;;;;;;0.88;0.88;;;3.70;99.90;;;;;;5033583;28;20169;-68
2020/12/18 07:36:18;;;;;;;0.40;0.40;;;3.80;99.90;;;;;;5032957;28;20209;-71
2020/12/18 07:38:44;;;;;;;0.90;0.90;;;3.90;99.90;;;;;;5032836;28;20208;-73
2020/12/18 07:41:17;;;;;;;0.40;0.40;;;3.90;99.90;;;;;;5032080;28;20170;-70
2020/12/18 07:43:47;;;;;;;0.38;0.38;;;4.00;99.90;;;;;;5033618;28;20589;-69
2020/12/18 07:46:16;;;;;;;0.40;0.40;;;4.10;99.90;;;;;;5013708;28;20179;-68
2020/12/18 07:48:43;;;;;;;0.98;0.98;;;4.10;99.90;;;;;;5013737;28;20179;-68
2020/12/18 07:51:20;;;;;;;0.30;0.30;;;4.20;99.90;;;;;;5013026;28;20242;-69
2020/12/18 07:53:51;;;;;;;0.30;0.30;;;4.20;99.90;;;;;;5013573;28;20190;-66
2020/12/18 07:56:19;;;;;;;0.35;0.35;;;4.20;99.90;;;;;;5013744;28;20589;-67
2020/12/18 07:58:47;;;;;;;0.38;0.38;;;4.20;99.90;;;;;;5016200;28;20656;-67
2020/12/18 08:01:21;;;;;;;0.50;0.50;;;4.40;99.90;;;;;;5052833;28;20201;-66
2020/12/18 08:03:52;;;;;;;1.38;1.00;;;4.40;99.90;;;;;;5053369;28;20162;-65
2020/12/18 08:06:20;;;;;;;0.88;0.88;;;4.30;99.90;;;;;;5053437;28;20170;-70
2020/12/18 08:09:00;;;;;;;0.77;0.77;;;4.40;99.90;;;;;;5053087;28;20224;-67
2020/12/18 08:11:28;;;;;;;0.30;0.30;;;4.50;99.90;;;;;;5052760;28;20192;-70
2020/12/18 08:13:58;;;;;;;0.40;0.40;;;4.60;99.90;;;;;;5052814;28;20170;-72
2020/12/18 08:16:26;;;;;;;0.70;0.70;;;4.70;99.90;;;;;;5053361;28;20166;-71
2020/12/18 08:19:03;;;;;;;1.38;1.38;;;4.70;99.90;;;;;;5040127;28;20186;-71
2020/12/18 08:21:32;;;;;;;0.30;0.30;;;4.70;99.90;;;;;;5036547;28;20626;-69
2020/12/18 08:24:05;;;;;;;0.55;0.43;;;4.80;99.90;;;;;;5037239;28;20532;-66
2020/12/18 08:26:53;;;;;;;0.40;0.40;;;4.90;99.90;;;;;;5037148;28;20154;-70
2020/12/18 08:29:21;;;;;;;0.50;0.50;;;5.10;99.90;;;;;;5016729;28;20277;-69
2020/12/18 08:31:47;;;;;;;0.30;0.30;;;5.20;99.90;;;;;;5015668;28;20724;-75
2020/12/18 08:34:20;;;;;;;0.30;0.30;;;5.30;99.90;;;;;;5051228;28;20188;-69
2020/12/18 08:36:47;;;;;;;0.43;0.40;;;5.40;99.90;;;;;;5056793;28;20161;-71
2020/12/18 08:39:14;;;;;;;0.30;0.30;;;5.50;99.90;;;;;;5056748;28;20652;-69
2020/12/18 08:41:51;;;;;;;0.30;0.30;;;5.60;99.90;;;;;;5056602;28;20197;-71
2020/12/18 08:44:20;;;;;;;1.30;1.13;;;5.60;99.90;;;;;;5056905;28;20169;-71
2020/12/18 08:46:47;;;;;;;0.40;0.40;;;5.70;99.90;;;;;;5056457;28;20544;-71
2020/12/18 08:49:18;;;;;;;0.30;0.28;;;5.70;99.90;;;;;;5037251;28;20182;-72
2020/12/18 08:51:46;;;;;;;0.30;0.30;;;5.80;99.90;;;;;;5036165;28;20190;-73
2020/12/18 08:54:31;;;;;;;0.60;0.60;;;5.90;99.90;;;;;;5036595;28;20189;-72
2020/12/18 08:57:12;;;;;;;1.15;1.05;;;6.00;99.90;;;;;;5050169;28;20227;-72
2020/12/18 08:59:38;;;;;;;0.50;0.50;;;6.10;99.90;;;;;;5048250;28;20189;-72
2020/12/18 09:02:12;;;;;;;0.40;0.40;;;6.30;99.90;;;;;;5033767;28;20202;-70
2020/12/18 09:04:38;;;;;;;0.73;0.73;;;6.40;99.90;;;;;;5033434;28;20193;-70
2020/12/18 09:07:04;;;;;;;0.30;0.30;;;6.40;99.90;;;;;;5035734;28;20201;-72
2020/12/18 09:09:29;;;;;;;1.27;1.17;;;6.40;99.90;;;;;;5035056;28;20170;-72
2020/12/18 09:11:55;;;;;;;1.23;1.17;;;6.40;99.90;;;;;;5034522;28;20224;-70
2020/12/18 09:14:30;;;;;;;0.40;0.40;;;6.50;99.90;;;;;;5036109;28;20548;-71
2020/12/18 09:17:02;;;;;;;0.38;0.38;;;6.60;99.90;;;;;;5032873;28;20177;-66
2020/12/18 09:19:27;;;;;;;0.30;0.20;;;6.60;99.90;;;;;;5036139;28;20204;-67
2020/12/18 09:22:05;;;;;;;0.87;0.87;;;6.70;99.90;;;;;;5035439;28;20201;-67
2020/12/18 09:24:31;;;;;;;0.70;0.70;;;6.70;99.90;;;;;;5034947;28;20251;-65
2020/12/18 09:27:10;;;;;;;1.83;1.73;;;6.60;99.90;;;;;;5035291;28;20748;-67
2020/12/18 09:29:37;;;;;;;0.30;0.30;;;6.60;99.90;;;;;;5035365;28;20210;-68
2020/12/18 09:32:06;;;;;;;1.73;1.67;;;6.60;99.90;;;;;;5033375;28;20214;-67
2020/12/18 09:34:33;;;;;;;0.68;0.57;;;6.60;99.90;;;;;;5035688;28;20185;-66
2020/12/18 09:37:11;;;;;;;0.43;0.43;;;6.60;99.90;;;;;;5035452;28;20174;-65
2020/12/18 09:39:37;;;;;;;0.52;0.52;;;6.50;99.90;;;;;;5015361;28;20202;-66
2020/12/18 09:42:03;;;;;;;0.30;0.30;;;6.50;99.90;;;;;;5030674;28;20202;-65
2020/12/18 09:44:28;;;;;;;0.30;0.30;;;6.60;99.90;;;;;;5015612;28;20172;-64
2020/12/18 09:46:54;;;;;;;0.30;0.30;;;6.70;99.90;;;;;;5015613;28;20193;-67
2020/12/18 09:49:19;;;;;;;0.30;0.30;;;6.80;99.90;;;;;;5015894;28;20267;-66
2020/12/18 09:51:46;;;;;;;0.50;0.50;;;7.10;99.90;;;;;;5015282;28;20215;-67
2020/12/18 09:54:12;;;;;;;1.40;0.88;;;7.40;99.90;;;;;;5034752;28;20274;-67
2020/12/18 09:56:37;;;;;;;0.43;0.43;;;7.60;99.90;;;;;;5035498;28;20304;-66
2020/12/18 09:59:03;;;;;;;1.33;1.33;;;8.30;99.90;;;;;;5035521;28;20190;-66
2020/12/18 10:01:29;;;;;;;1.20;1.20;;;9.10;99.90;;;;;;5037457;28;20218;-67
2020/12/18 10:03:54;;;;;;;0.30;0.30;;;9.90;99.90;;;;;;5055046;28;20589;-69
2020/12/18 10:06:27;;;;;;;1.13;1.13;;;10.60;99.90;;;;;;5055018;28;20166;-69
2020/12/18 10:08:53;;;;;;;0.40;0.40;;;11.40;99.90;;;;;;5055244;28;20589;-68
2020/12/18 10:11:19;;;;;;;0.67;0.60;;;12.00;99.90;;;;;;5054802;28;20486;-76
2020/12/18 10:13:44;;;;;;;0.40;0.40;;;12.50;99.90;;;;;;5053974;28;20169;-71
2020/12/18 10:16:10;;;;;;;0.30;0.30;;;13.00;99.90;;;;;;5053407;28;20458;-72
2020/12/18 10:18:36;;;;;;;0.30;0.30;;;13.20;99.90;;;;;;5054954;28;20186;-73
2020/12/18 10:21:03;;;;;;;1.03;0.93;;;13.40;99.90;;;;;;5053168;28;20524;-70
2020/12/18 10:23:29;;;;;;;0.40;0.40;;;13.60;99.90;;;;;;5034870;28;20762;-72
2020/12/18 10:25:56;;;;;;;2.07;1.77;;;14.10;99.90;;;;;;5034907;28;20415;-67
2020/12/18 10:28:21;;;;;;;0.50;0.50;;;14.30;99.90;;;;;;5045573;28;20542;-74
2020/12/18 10:30:47;;;;;;;2.10;2.00;;;14.50;99.90;;;;;;5054549;28;20418;-69
2020/12/18 10:33:13;;;;;;;0.60;0.60;;;14.60;99.90;;;;;;5040971;28;20246;-73
2020/12/18 10:35:38;;;;;;;0.60;0.60;;;14.70;99.90;;;;;;5033279;28;20174;-74
2020/12/18 10:38:04;;;;;;;0.30;0.30;;;14.80;99.90;;;;;;5034050;28;20168;-75
2020/12/18 10:40:32;;;;;;;0.83;0.83;;;14.70;99.90;;;;;;5034123;28;20220;-73
2020/12/18 10:42:57;;;;;;;0.30;0.20;;;14.60;99.90;;;;;;5034762;28;20603;-73
2020/12/18 10:45:23;;;;;;;0.30;0.30;;;14.50;99.90;;;;;;5035682;28;20381;-74
2020/12/18 10:47:49;;;;;;;0.30;0.20;;;14.60;99.90;;;;;;5037244;28;20180;-68
2020/12/18 10:50:14;;;;;;;0.50;0.50;;;14.60;99.90;;;;;;5035062;28;20182;-71
2020/12/18 10:52:40;;;;;;;1.10;0.40;;;14.60;99.90;;;;;;5050027;28;20294;-69
2020/12/18 10:55:05;;;;;;;0.30;0.20;;;14.60;99.90;;;;;;5034617;28;20180;-70
2020/12/18 10:57:31;;;;;;;0.30;0.20;;;14.70;99.90;;;;;;5034606;28;20225;-74
2020/12/18 10:59:57;;;;;;;0.30;0.20;;;14.80;99.90;;;;;;5033959;28;20212;-72
2020/12/18 11:02:22;;;;;;;0.80;0.40;;;14.80;99.90;;;;;;5034231;28;20199;-76
2020/12/18 11:04:48;;;;;;;0.63;0.63;;;14.80;99.90;;;;;;5034373;28;20175;-73
2020/12/18 11:07:14;;;;;;;0.83;0.83;;;14.80;99.90;;;;;;5050423;28;20179;-72
2020/12/18 11:09:39;;;;;;;0.60;0.53;;;14.50;99.80;;;;;;5034910;28;20632;-73
2020/12/18 11:12:05;;;;;;;0.77;0.70;;;13.80;99.90;;;;;;5036117;28;20225;-75
2020/12/18 11:14:31;;;;;;;0.40;0.40;;;13.20;99.90;;;;;;5036856;28;20177;-72
2020/12/18 11:16:56;;;;;;;0.97;0.77;;;12.50;99.90;;;;;;5036653;28;20172;-73
2020/12/18 11:19:23;;;;;;;2.30;1.60;;;12.00;99.90;;;;;;5034621;28;20211;-71
2020/12/18 11:21:48;;;;;;;0.30;0.30;;;11.60;99.90;;;;;;5033641;28;20244;-73
2020/12/18 11:24:14;;;;;;;3.10;2.60;;;11.30;99.90;;;;;;5034736;28;20580;-71
2020/12/18 11:26:40;;;;;;;0.30;0.30;;;10.90;99.90;;;;;;5033882;28;20185;-71
2020/12/18 11:29:07;;;;;;;0.45;0.43;;;10.80;99.90;;;;;;5049537;28;20177;-68
2020/12/18 11:31:37;;;;;;;0.55;0.55;;;10.60;99.90;;;;;;5053042;28;20227;-69
2020/12/18 11:34:03;;;;;;;0.30;0.20;;;10.40;99.90;;;;;;5053545;28;20173;-68
2020/12/18 11:36:28;;;;;;;2.43;0.67;;;10.20;99.90;;;;;;5053754;28;20223;-67
2020/12/18 11:38:54;;;;;;;0.30;0.30;;;10.20;99.90;;;;;;5054956;28;20285;-69
2020/12/18 11:41:20;;;;;;;0.60;0.60;;;10.10;99.90;;;;;;5053847;28;20196;-70
2020/12/18 11:43:47;;;;;;;0.30;0.30;;;10.10;99.90;;;;;;5053594;28;20205;-68
2020/12/18 11:46:13;;;;;;;0.38;0.38;;;10.00;99.90;;;;;;5052155;28;20627;-72
2020/12/18 11:48:39;;;;;;;0.43;0.43;;;10.00;99.90;;;;;;5054201;28;20196;-74
2020/12/18 11:51:06;;;;;;;0.30;0.30;;;9.90;99.90;;;;;;5053696;28;20170;-75
2020/12/18 11:53:31;;;;;;;0.30;0.30;;;9.90;99.90;;;;;;5049848;28;20231;-70
2020/12/18 11:55:57;;;;;;;0.30;0.20;;;9.90;99.90;;;;;;5033301;28;20693;-70
2020/12/18 11:58:22;;;;;;;0.40;0.40;;;9.90;99.90;;;;;;5033632;28;20248;-70
2020/12/18 12:00:48;;;;;;;0.40;0.40;;;9.90;99.90;;;;;;5032801;28;20166;-69
2020/12/18 12:03:14;;;;;;;0.80;0.80;;;10.00;99.90;;;;;;5032968;28;20218;-69
2020/12/18 12:05:39;;;;;;;2.50;2.30;;;10.00;99.90;;;;;;5033198;28;20166;-69
2020/12/18 12:08:05;;;;;;;0.50;0.50;;;10.10;99.90;;;;;;5033333;28;20167;-70
2020/12/18 12:10:31;;;;;;;0.30;0.30;;;10.10;99.90;;;;;;5032908;28;20264;-68
2020/12/18 12:12:58;;;;;;;0.30;0.30;;;10.20;99.90;;;;;;5032989;28;20193;-67
2020/12/18 12:15:24;;;;;;;0.70;0.70;;;10.20;99.90;;;;;;5033285;28;20190;-74
2020/12/18 12:17:50;;;;;;;0.40;0.40;;;10.20;99.90;;;;;;5035585;28;20192;-69
2020/12/18 12:20:16;;;;;;;0.50;0.50;;;10.20;99.90;;;;;;5032883;28;20193;-69
2020/12/18 12:22:41;;;;;;;0.50;0.50;;;10.30;99.90;;;;;;5042709;28;20490;-71
2020/12/18 12:25:07;;;;;;;0.30;0.30;;;10.30;99.90;;;;;;5032878;28;20181;-68
2020/12/18 12:27:32;;;;;;;1.37;1.37;;;10.50;99.90;;;;;;5033350;28;20170;-69
2020/12/18 12:29:58;;;;;;;0.30;0.30;;;10.50;99.90;;;;;;5034007;28;20174;-68
2020/12/18 12:32:24;;;;;;;0.30;0.30;;;10.60;99.90;;;;;;5030751;28;20656;-68
2020/12/18 12:34:50;;;;;;;0.50;0.50;;;10.50;99.90;;;;;;5031575;28;20175;-68
2020/12/18 12:37:16;;;;;;;2.17;2.00;;;10.60;99.90;;;;;;5032537;28;20693;-68
2020/12/18 12:39:43;;;;;;;0.30;0.30;;;10.70;99.90;;;;;;5034090;28;20190;-69
2020/12/18 12:42:09;;;;;;;0.82;0.82;;;10.70;99.90;;;;;;5032406;28;20209;-69
2020/12/18 12:44:34;;;;;;;0.30;0.20;;;10.80;99.90;;;;;;5033702;28;20170;-68
2020/12/18 12:47:00;;;;;;;2.30;1.33;;;10.90;99.90;;;;;;5032242;28;20532;-68
2020/12/18 12:49:26;;;;;;;0.50;0.50;;;11.00;99.90;;;;;;5032327;28;20209;-68
2020/12/18 12:51:59;;;;;;;0.30;0.30;;;11.00;99.90;;;;;;5032240;28;20225;-69
2020/12/18 12:54:25;;;;;;;0.30;0.30;;;11.00;99.90;;;;;;5032455;28;20758;-67
2020/12/18 12:56:52;;;;;;;0.30;0.30;;;11.10;99.90;;;;;;5031720;28;20301;-67